createdAt,value
2018-04-18T17:19:56.259Z,63.90
2018-04-18T17:22:25.606Z,63.70
2018-04-18T17:24:53.303Z,64.30
2018-04-18T17:30:11.356Z,64.00
2018-04-18T17:32:50.590Z,64.20
2018-04-18T17:35:19.810Z,64.40
2018-04-18T17:37:48.860Z,63.60
2018-04-18T17:40:18.389Z,64.30
2018-04-18T17:42:46.787Z,64.40
2018-04-18T17:49:45.366Z,65.80
2018-04-18T17:52:12.866Z,66.80
2018-04-18T17:54:40.398Z,66.40
2018-04-18T17:57:07.921Z,66.50
2018-04-18T17:59:36.224Z,66.80
2018-04-18T18:02:03.743Z,66.60
2018-04-18T18:04:31.260Z,67.10
2018-04-18T18:06:59.539Z,70.50
2018-04-18T18:09:27.795Z,69.10
2018-04-18T18:11:55.306Z,69.00
2018-04-18T18:14:23.570Z,69.70
2018-04-18T18:16:51.913Z,69.60
2018-04-18T18:19:19.425Z,69.40
2018-04-18T18:21:46.968Z,69.40
2018-04-18T18:24:14.480Z,71.00
2018-04-18T18:26:42.836Z,72.50
2018-04-18T18:29:26.777Z,72.50
2018-04-18T18:31:54.275Z,72.50
2018-04-18T18:34:21.800Z,73.60
2018-04-18T18:36:49.296Z,73.70
2018-04-18T18:41:31.238Z,76.20
2018-04-18T18:43:59.137Z,75.60
2018-04-18T18:46:26.680Z,74.60
2018-04-18T18:48:54.215Z,74.40
2018-04-18T18:51:21.738Z,74.10
2018-04-18T18:53:49.292Z,74.40
2018-04-18T18:56:16.813Z,74.90
2018-04-18T18:58:45.094Z,74.50
2018-04-18T19:01:13.410Z,75.40
2018-04-18T19:03:40.909Z,75.30
2018-04-18T19:06:08.423Z,75.60
2018-04-18T19:08:36.708Z,77.30
2018-04-18T19:11:05.767Z,77.30
2018-04-18T19:13:33.301Z,77.00
2018-04-18T19:16:01.593Z,77.30
2018-04-18T19:18:29.880Z,77.40
2018-04-18T19:20:58.162Z,78.00
2018-04-18T19:23:26.520Z,78.60
2018-04-18T19:25:54.124Z,78.50
2018-04-18T19:28:23.405Z,80.20
2018-04-18T19:30:50.857Z,80.10
2018-04-18T19:33:18.354Z,79.30
2018-04-18T19:35:45.887Z,80.10
2018-04-18T19:38:13.382Z,81.40
2018-04-18T19:40:40.914Z,82.10
2018-04-18T19:43:08.428Z,81.80
2018-04-18T19:45:35.980Z,81.10
2018-04-18T19:48:03.492Z,81.60
2018-04-18T19:50:31.010Z,81.40
2018-04-18T19:52:58.499Z,81.10
2018-04-18T19:55:25.999Z,80.70
2018-04-18T19:57:54.290Z,83.30
2018-04-18T20:00:22.554Z,83.40
2018-04-18T20:02:50.090Z,83.30
2018-04-18T20:05:17.594Z,83.50
2018-04-18T20:07:45.176Z,83.00
2018-04-18T20:10:12.620Z,84.80
2018-04-18T20:12:40.167Z,84.10
2018-04-18T20:15:10.336Z,84.60
2018-04-18T20:17:37.858Z,84.70
2018-04-18T20:20:06.140Z,85.20
2018-04-18T20:22:34.580Z,86.70
2018-04-18T20:25:02.086Z,85.80
2018-04-18T20:27:29.604Z,87.10
2018-04-18T20:29:57.165Z,87.00
2018-04-18T20:32:24.876Z,87.00
2018-04-18T20:34:52.447Z,87.60
2018-04-18T20:37:19.996Z,88.80
2018-04-18T20:39:48.598Z,88.20
2018-04-18T20:42:16.177Z,89.60
2018-04-18T20:44:43.784Z,90.00
2018-04-18T20:47:12.087Z,90.30
2018-04-18T20:49:40.494Z,90.10
2018-04-18T20:52:08.057Z,90.10
2018-04-18T20:54:36.385Z,90.60
2018-04-18T20:57:03.908Z,90.50
2018-04-18T20:59:32.240Z,90.40
2018-04-18T21:01:59.758Z,90.40
2018-04-18T21:04:28.104Z,90.90
2018-04-18T21:06:55.640Z,90.90
2018-04-18T21:09:23.181Z,91.40
2018-04-18T21:11:50.818Z,91.70
2018-04-18T21:14:18.377Z,91.80
2018-04-18T21:16:45.935Z,92.20
2018-04-18T21:19:13.459Z,92.50
2018-04-18T21:21:40.989Z,92.50
2018-04-18T21:24:08.522Z,92.80
2018-04-18T21:26:36.857Z,93.40
2018-04-18T21:29:04.430Z,93.40
2018-04-18T21:31:31.984Z,93.70
2018-04-18T21:33:59.603Z,94.20
2018-04-18T21:36:27.139Z,94.40
2018-04-18T21:38:54.743Z,94.50
2018-04-18T21:41:22.290Z,94.70
2018-04-18T21:43:49.814Z,94.90
2018-04-18T21:46:18.126Z,95.40
2018-04-18T21:48:45.658Z,95.20
2018-04-18T21:51:13.183Z,95.80
2018-04-18T21:53:40.731Z,96.10
2018-04-18T21:56:08.299Z,95.90
2018-04-18T21:58:46.035Z,96.70
2018-04-18T22:01:13.655Z,97.10
2018-04-18T22:03:41.169Z,98.20
2018-04-18T22:06:08.745Z,98.00
2018-04-18T22:08:36.295Z,98.30
2018-04-18T22:11:03.875Z,98.60
2018-04-18T22:13:31.479Z,99.30
2018-04-18T22:15:59.037Z,99.40
2018-04-18T22:18:26.583Z,99.90
2018-04-18T22:20:54.855Z,99.90
2018-04-18T22:23:22.355Z,99.90
2018-04-18T22:25:49.880Z,99.90
2018-04-18T22:28:17.376Z,99.90
2018-04-18T22:30:44.907Z,99.90
2018-04-18T22:33:12.421Z,99.90
2018-04-18T22:35:40.697Z,99.90
2018-04-18T22:38:08.210Z,99.90
2018-04-18T22:40:35.738Z,99.90
2018-04-18T22:43:03.273Z,99.90
2018-04-18T22:45:31.553Z,99.90
2018-04-18T22:47:59.074Z,99.90
2018-04-18T22:50:26.590Z,99.90
2018-04-18T22:52:54.885Z,99.90
2018-04-18T22:55:22.403Z,99.90
2018-04-18T22:57:50.694Z,99.90
2018-04-18T23:00:22.058Z,99.90
2018-04-18T23:02:50.338Z,99.90
2018-04-18T23:05:17.834Z,99.90
2018-04-18T23:07:45.339Z,99.90
2018-04-18T23:10:12.869Z,99.90
2018-04-18T23:12:40.376Z,99.90
2018-04-18T23:15:07.912Z,99.90
2018-04-18T23:17:35.469Z,99.90
2018-04-18T23:20:03.746Z,99.90
2018-04-18T23:22:34.057Z,99.90
2018-04-18T23:25:01.569Z,99.90
2018-04-18T23:27:29.093Z,99.90
2018-04-18T23:29:57.598Z,99.90
2018-04-18T23:32:25.111Z,99.90
2018-04-18T23:34:52.638Z,99.90
2018-04-18T23:37:20.143Z,99.90
2018-04-18T23:39:47.679Z,99.90
2018-04-18T23:42:15.182Z,99.90
2018-04-18T23:44:43.463Z,99.90
2018-04-18T23:47:11.756Z,99.90
2018-04-18T23:49:39.262Z,99.90
2018-04-18T23:52:06.803Z,99.90
2018-04-18T23:54:34.326Z,99.90
2018-04-18T23:57:02.598Z,99.90
2018-04-18T23:59:30.885Z,99.90
